Time;durP1;ratioP1;P1;durP2;ratioP2;P2;SDS_P1;SDS_P2;PMS_P1;PMS_P2;Temp;Humidity;BMP_temperature;BMP_pressure;BME280_temperature;BME280_humidity;BME280_pressure;Samples;Min_cycle;Max_cycle;Signal;HPM_P1;HPM_P2
2021/05/04 00:01:43;;;;;;;3.70;3.60;;;12.90;35.90;;;;;;4952489;29;20182;-90
2021/05/04 00:04:14;;;;;;;4.30;4.00;;;13.80;36.50;;;;;;4935717;29;20182;-90
2021/05/04 00:06:40;;;;;;;2.63;2.63;;;12.90;35.40;;;;;;4948116;29;20426;-88
2021/05/04 00:09:06;;;;;;;3.43;3.33;;;13.40;36.40;;;;;;4950294;29;20445;-89
2021/05/04 00:11:33;;;;;;;3.47;3.37;;;12.40;34.20;;;;;;4947873;29;20186;-89
2021/05/04 00:13:58;;;;;;;3.60;3.50;;;12.60;34.60;;;;;;4950417;29;20410;-89
2021/05/04 00:16:24;;;;;;;4.43;4.13;;;12.60;35.10;;;;;;4950312;29;20474;-89
2021/05/04 00:18:52;;;;;;;3.60;3.40;;;14.50;37.30;;;;;;4949795;29;20181;-89
2021/05/04 00:21:22;;;;;;;3.70;3.50;;;12.40;34.80;;;;;;4950850;29;20186;-89
2021/05/04 00:23:48;;;;;;;3.20;3.10;;;12.90;33.80;;;;;;4950385;29;20442;-88
2021/05/04 00:26:14;;;;;;;3.33;3.13;;;14.50;37.50;;;;;;4952412;29;20427;-90
2021/05/04 00:28:40;;;;;;;2.83;2.73;;;14.20;36.90;;;;;;4953885;29;20174;-90
2021/05/04 00:31:05;;;;;;;3.57;3.57;;;13.90;36.70;;;;;;4955147;29;20206;-88
2021/05/04 00:33:31;;;;;;;2.83;2.80;;;14.10;36.20;;;;;;4953006;29;20201;-90
2021/05/04 00:35:57;;;;;;;2.97;2.87;;;14.10;37.40;;;;;;4952565;29;20478;-90
2021/05/04 00:38:23;;;;;;;3.67;3.57;;;14.10;36.20;;;;;;4950949;29;20186;-88
2021/05/04 00:40:49;;;;;;;4.33;4.00;;;13.20;34.60;;;;;;4951492;29;20253;-89
2021/05/04 00:43:16;;;;;;;3.40;3.17;;;11.80;34.80;;;;;;4950256;29;20414;-89
2021/05/04 00:45:42;;;;;;;3.70;3.47;;;13.70;34.70;;;;;;4967317;29;20961;-89
2021/05/04 00:48:08;;;;;;;3.60;3.30;;;13.00;35.30;;;;;;4949282;29;20481;-88
2021/05/04 00:50:34;;;;;;;3.00;2.93;;;12.90;35.50;;;;;;4953400;29;20422;-89
2021/05/04 00:53:00;;;;;;;2.50;2.50;;;13.00;35.80;;;;;;4936712;29;20780;-89
2021/05/04 00:55:26;;;;;;;3.70;3.60;;;14.50;38.20;;;;;;4951823;29;20215;-89
2021/05/04 00:57:54;;;;;;;3.67;3.57;;;14.10;36.60;;;;;;4969625;29;20175;-89
2021/05/04 01:00:20;;;;;;;3.27;3.17;;;13.40;35.10;;;;;;4969552;29;20496;-89
2021/05/04 01:02:47;;;;;;;2.37;2.37;;;14.70;37.60;;;;;;4951905;29;20454;-89
2021/05/04 01:05:15;;;;;;;2.40;2.40;;;12.60;35.30;;;;;;4951961;29;20182;-88
2021/05/04 01:07:42;;;;;;;4.10;2.67;;;12.90;35.10;;;;;;4967902;29;20423;-88
2021/05/04 01:10:14;;;;;;;1.93;1.93;;;12.70;34.10;;;;;;4951235;29;20422;-88
2021/05/04 01:12:39;;;;;;;2.70;2.60;;;12.70;34.90;;;;;;4953115;29;20929;-89
2021/05/04 01:15:06;;;;;;;2.70;2.70;;;13.50;35.40;;;;;;4970142;29;20462;-88
2021/05/04 01:17:32;;;;;;;3.70;3.27;;;12.90;36.10;;;;;;4954512;29;20434;-89
2021/05/04 01:19:58;;;;;;;2.20;2.20;;;14.70;37.10;;;;;;4952068;29;20430;-88
2021/05/04 01:22:24;;;;;;;4.00;2.83;;;12.00;35.90;;;;;;4967656;29;20190;-88
2021/05/04 01:24:51;;;;;;;2.87;2.77;;;14.60;36.50;;;;;;4953378;29;20559;-88
2021/05/04 01:27:16;;;;;;;2.53;2.53;;;13.20;34.80;;;;;;4935932;29;20446;-89
2021/05/04 01:29:42;;;;;;;4.00;2.97;;;14.10;36.40;;;;;;4953173;29;20941;-89
2021/05/04 01:32:12;;;;;;;3.00;2.80;;;12.40;35.60;;;;;;4952273;29;20202;-89
2021/05/04 01:34:38;;;;;;;4.20;3.60;;;14.30;35.50;;;;;;4950078;29;20462;-89
2021/05/04 01:37:04;;;;;;;3.40;3.10;;;14.00;35.90;;;;;;4969314;29;20431;-89
2021/05/04 01:39:44;;;;;;;3.50;3.00;;;12.60;34.90;;;;;;4951642;29;20198;-89
2021/05/04 01:42:15;;;;;;;2.97;2.87;;;14.60;35.80;;;;;;4951229;29;20461;-89
2021/05/04 01:44:41;;;;;;;3.23;2.83;;;13.70;36.20;;;;;;4935432;29;20568;-88
2021/05/04 01:47:07;;;;;;;2.80;2.80;;;13.90;36.10;;;;;;4967570;29;20414;-88
2021/05/04 01:49:33;;;;;;;3.07;2.87;;;14.40;37.90;;;;;;4950340;29;20422;-89
2021/05/04 01:52:00;;;;;;;2.37;2.27;;;12.80;35.40;;;;;;4950090;29;20544;-88
2021/05/04 01:54:27;;;;;;;3.00;2.80;;;13.20;35.60;;;;;;4950969;29;20836;-88
2021/05/04 01:56:55;;;;;;;2.80;2.70;;;13.10;35.20;;;;;;4951504;29;20477;-89
2021/05/04 01:59:22;;;;;;;2.53;2.33;;;12.70;35.60;;;;;;4957150;28;20445;-89
2021/05/04 02:01:47;;;;;;;2.50;2.40;;;11.90;36.80;;;;;;4954719;29;20528;-89
2021/05/04 02:04:14;;;;;;;2.90;2.90;;;12.60;36.20;;;;;;4973595;29;20475;-90
2021/05/04 02:06:39;;;;;;;2.07;2.07;;;14.20;35.80;;;;;;4954700;29;20175;-89
2021/05/04 02:09:06;;;;;;;2.40;2.40;;;14.40;38.30;;;;;;4934812;29;20429;-88
2021/05/04 02:11:38;;;;;;;5.10;2.40;;;14.20;36.00;;;;;;4967534;29;20170;-88
2021/05/04 02:14:08;;;;;;;1.77;1.77;;;13.00;36.00;;;;;;4938225;29;20418;-88
2021/05/04 02:16:35;;;;;;;2.90;1.80;;;12.60;34.40;;;;;;4933070;29;20475;-88
2021/05/04 02:19:03;;;;;;;2.00;1.73;;;14.40;35.50;;;;;;4953162;29;20414;-87
2021/05/04 02:21:28;;;;;;;5.80;1.97;;;12.60;35.30;;;;;;4951986;29;20449;-89
2021/05/04 02:23:56;;;;;;;7.60;1.60;;;11.40;35.40;;;;;;4971055;29;20485;-88
2021/05/04 02:26:23;;;;;;;1.30;1.30;;;12.70;37.90;;;;;;4954548;29;20940;-88
2021/05/04 02:28:50;;;;;;;1.70;1.57;;;12.00;39.90;;;;;;4971936;29;20435;-88
2021/05/04 02:31:21;;;;;;;1.50;1.50;;;13.00;42.90;;;;;;4957088;29;20434;-90
2021/05/04 02:33:49;;;;;;;1.80;1.80;;;11.10;46.20;;;;;;4956154;29;20422;-89
2021/05/04 02:36:15;;;;;;;4.87;2.87;;;12.40;47.10;;;;;;4971162;29;20525;-89
2021/05/04 02:38:42;;;;;;;12.50;2.40;;;11.10;47.80;;;;;;4971368;29;20446;-89
2021/05/04 02:41:09;;;;;;;4.23;2.03;;;11.80;50.30;;;;;;4954515;29;20174;-89
2021/05/04 02:43:36;;;;;;;2.37;1.90;;;11.20;50.50;;;;;;4952609;29;20422;-89
2021/05/04 02:46:02;;;;;;;14.47;2.77;;;11.60;51.60;;;;;;4966366;29;20960;-88
2021/05/04 02:48:28;;;;;;;5.18;1.90;;;9.40;53.70;;;;;;4959034;29;20509;-88
2021/05/04 02:50:54;;;;;;;1.67;1.57;;;9.20;53.70;;;;;;4957262;29;20261;-87
2021/05/04 02:53:20;;;;;;;2.20;2.10;;;9.40;54.90;;;;;;4956889;29;20225;-87
2021/05/04 02:55:45;;;;;;;3.97;2.20;;;9.90;59.50;;;;;;4957073;29;20465;-87
2021/05/04 02:58:12;;;;;;;2.40;2.03;;;9.10;58.20;;;;;;4957183;29;20170;-88
2021/05/04 03:00:38;;;;;;;1.30;1.20;;;9.20;58.00;;;;;;4956927;29;20226;-87
2021/05/04 03:03:03;;;;;;;4.70;2.50;;;8.70;59.50;;;;;;4945834;29;20929;-87
2021/05/04 03:05:29;;;;;;;2.40;1.97;;;9.10;62.40;;;;;;4964323;29;20198;-87
2021/05/04 03:07:55;;;;;;;1.90;1.80;;;8.90;62.70;;;;;;4945038;29;20174;-87
2021/05/04 03:10:20;;;;;;;2.07;1.97;;;8.70;63.90;;;;;;4943103;29;20422;-87
2021/05/04 03:12:46;;;;;;;1.93;1.93;;;8.50;63.90;;;;;;4955870;28;20261;-86
2021/05/04 03:15:12;;;;;;;2.77;1.73;;;8.60;63.60;;;;;;4956540;29;20662;-88
2021/05/04 03:17:37;;;;;;;1.97;1.83;;;8.80;62.60;;;;;;4957313;29;20186;-88
2021/05/04 03:20:05;;;;;;;1.40;1.40;;;8.80;62.90;;;;;;4958210;29;20414;-88
2021/05/04 03:22:30;;;;;;;3.70;2.40;;;8.80;62.40;;;;;;4942039;29;20189;-87
2021/05/04 03:24:56;;;;;;;3.53;2.17;;;8.60;64.30;;;;;;4959247;29;20498;-87
2021/05/04 03:27:22;;;;;;;2.67;2.43;;;8.60;64.10;;;;;;4943804;29;20174;-88
2021/05/04 03:29:47;;;;;;;4.63;2.10;;;8.50;64.70;;;;;;4942894;29;20436;-87
2021/05/04 03:32:13;;;;;;;2.70;2.60;;;10.50;66.80;;;;;;4961001;29;20194;-88
2021/05/04 03:34:39;;;;;;;2.60;2.40;;;8.20;65.50;;;;;;4961113;29;20170;-89
2021/05/04 03:37:04;;;;;;;2.87;2.60;;;9.90;68.20;;;;;;4941943;29;20201;-87
2021/05/04 03:39:30;;;;;;;2.53;2.43;;;8.50;66.50;;;;;;4959524;29;20257;-87
2021/05/04 03:41:55;;;;;;;3.50;2.67;;;8.70;67.00;;;;;;4956938;29;20241;-88
2021/05/04 03:44:21;;;;;;;3.17;2.93;;;8.30;67.20;;;;;;4940701;29;20171;-87
2021/05/04 03:46:46;;;;;;;6.43;2.20;;;8.50;68.50;;;;;;4957281;29;20229;-87
2021/05/04 03:49:12;;;;;;;4.57;2.77;;;8.50;67.50;;;;;;4957690;29;20201;-87
2021/05/04 03:51:38;;;;;;;2.50;2.50;;;8.50;68.50;;;;;;4939740;29;20189;-88
2021/05/04 03:54:04;;;;;;;2.97;2.43;;;8.30;68.50;;;;;;4940164;29;20178;-87
2021/05/04 03:56:30;;;;;;;2.20;2.10;;;8.40;69.00;;;;;;4956687;29;20584;-87
2021/05/04 03:58:56;;;;;;;1.80;1.80;;;8.30;69.10;;;;;;4957154;29;20411;-87
2021/05/04 04:01:22;;;;;;;2.90;2.60;;;8.10;67.80;;;;;;4957710;29;20426;-87
2021/05/04 04:03:50;;;;;;;2.28;2.28;;;8.10;68.00;;;;;;4958742;29;20174;-84
2021/05/04 04:06:17;;;;;;;1.67;1.57;;;7.90;68.20;;;;;;4942408;29;20261;-88
2021/05/04 04:08:45;;;;;;;2.50;2.50;;;7.90;66.70;;;;;;4959480;29;20415;-87
2021/05/04 04:11:11;;;;;;;3.00;2.90;;;6.90;67.00;;;;;;4942102;29;20572;-88
2021/05/04 04:13:36;;;;;;;1.70;1.70;;;7.60;68.20;;;;;;4940587;29;20433;-88
2021/05/04 04:16:02;;;;;;;2.47;2.37;;;9.50;70.70;;;;;;4942489;29;20215;-89
2021/05/04 04:18:28;;;;;;;2.37;2.37;;;8.40;68.40;;;;;;4942602;29;20261;-88
2021/05/04 04:20:53;;;;;;;1.40;1.30;;;9.80;70.20;;;;;;4959505;29;20202;-88
2021/05/04 04:23:19;;;;;;;1.60;1.60;;;7.90;65.50;;;;;;4960252;28;20193;-88
2021/05/04 04:25:44;;;;;;;2.40;2.20;;;7.70;66.70;;;;;;4964339;29;20175;-88
2021/05/04 04:28:10;;;;;;;2.40;1.43;;;8.50;66.80;;;;;;4947473;29;20178;-88
2021/05/04 04:30:36;;;;;;;2.10;2.00;;;8.40;66.90;;;;;;4964337;29;20175;-87
2021/05/04 04:33:01;;;;;;;2.57;2.47;;;7.70;65.40;;;;;;4963011;29;20626;-90
2021/05/04 04:35:27;;;;;;;2.00;2.00;;;9.00;72.40;;;;;;4962550;29;20666;-85
2021/05/04 04:37:52;;;;;;;2.23;2.13;;;8.60;67.30;;;;;;4963378;29;20528;-87
2021/05/04 04:40:18;;;;;;;1.67;1.60;;;7.10;64.60;;;;;;4962451;29;20174;-87
2021/05/04 04:42:44;;;;;;;2.10;2.10;;;8.10;64.20;;;;;;4945453;29;20175;-87
2021/05/04 04:45:10;;;;;;;2.27;2.27;;;8.50;64.30;;;;;;4964158;29;20589;-88
2021/05/04 04:47:35;;;;;;;2.53;2.33;;;8.70;64.30;;;;;;4963600;29;20179;-88
2021/05/04 04:50:01;;;;;;;2.97;2.40;;;8.50;63.70;;;;;;4963126;29;20175;-89
2021/05/04 04:52:27;;;;;;;2.50;2.40;;;8.60;64.10;;;;;;4963244;29;20638;-89
2021/05/04 04:54:53;;;;;;;2.13;2.07;;;8.60;63.40;;;;;;4964012;29;20529;-88
2021/05/04 04:57:18;;;;;;;2.67;2.57;;;8.70;62.10;;;;;;4946053;29;20175;-89
2021/05/04 04:59:44;;;;;;;4.27;2.10;;;8.80;61.80;;;;;;4945035;29;20433;-87
2021/05/04 05:02:09;;;;;;;2.10;2.00;;;9.30;60.70;;;;;;4945434;29;20175;-87
2021/05/04 05:04:35;;;;;;;5.70;3.60;;;9.00;60.30;;;;;;4947004;29;20269;-87
2021/05/04 05:07:05;;;;;;;2.20;2.00;;;8.90;61.50;;;;;;4945279;29;20170;-88
2021/05/04 05:09:35;;;;;;;2.50;2.40;;;8.90;60.10;;;;;;4946134;29;20236;-88
2021/05/04 05:12:02;;;;;;;2.03;1.87;;;8.90;59.50;;;;;;4963448;29;20902;-87
2021/05/04 05:14:28;;;;;;;2.03;1.90;;;8.90;59.20;;;;;;4276298;28;10000743;-88
2021/05/04 05:16:53;;;;;;;2.90;2.80;;;9.00;59.20;;;;;;4944340;29;20205;-88
2021/05/04 05:19:19;;;;;;;2.13;2.13;;;10.70;59.50;;;;;;4944286;28;20171;-87
2021/05/04 05:21:45;;;;;;;2.13;2.03;;;9.10;58.90;;;;;;4943497;29;20170;-86
2021/05/04 05:24:11;;;;;;;4.23;2.50;;;9.10;58.80;;;;;;4960944;28;20178;-90
2021/05/04 05:26:36;;;;;;;2.73;2.20;;;9.00;58.40;;;;;;4960492;28;20451;-88
2021/05/04 05:29:03;;;;;;;3.67;2.60;;;9.00;58.70;;;;;;4960972;28;20632;-88
2021/05/04 05:31:31;;;;;;;1.80;1.70;;;9.00;58.40;;;;;;4961582;29;20202;-90
2021/05/04 05:33:56;;;;;;;2.03;2.03;;;8.70;58.50;;;;;;4959985;29;20457;-88
2021/05/04 05:36:22;;;;;;;1.20;1.20;;;10.60;59.00;;;;;;4955369;28;20255;-88
2021/05/04 05:38:50;;;;;;;1.47;1.47;;;8.30;59.10;;;;;;4957266;29;20179;-88
2021/05/04 05:41:16;;;;;;;2.57;2.37;;;8.70;60.50;;;;;;4960005;29;20632;-88
2021/05/04 05:43:41;;;;;;;2.33;2.20;;;8.70;61.60;;;;;;4959496;29;20414;-88
2021/05/04 05:46:09;;;;;;;2.33;2.33;;;7.30;61.70;;;;;;4945096;29;20179;-89
2021/05/04 05:48:35;;;;;;;3.55;2.80;;;6.80;65.50;;;;;;4941816;29;20225;-86
2021/05/04 05:51:00;;;;;;;2.10;2.10;;;12.40;70.50;;;;;;4959175;29;20206;-88
2021/05/04 05:53:26;;;;;;;2.57;2.40;;;8.10;66.60;;;;;;4941760;29;20629;-87
2021/05/04 05:55:52;;;;;;;2.10;2.00;;;8.20;66.70;;;;;;4958682;29;20222;-88
2021/05/04 05:58:17;;;;;;;2.67;2.57;;;8.00;67.00;;;;;;4943831;29;20205;-87
2021/05/04 06:00:43;;;;;;;2.50;2.40;;;8.00;65.20;;;;;;4964767;29;20175;-87
2021/05/04 06:03:09;;;;;;;1.83;1.70;;;8.10;64.60;;;;;;4966059;29;20190;-86
2021/05/04 06:05:34;;;;;;;1.90;1.90;;;8.20;63.10;;;;;;4946267;29;20466;-87
2021/05/04 06:08:01;;;;;;;2.10;2.00;;;8.30;63.00;;;;;;4957913;29;20662;-87
2021/05/04 06:10:27;;;;;;;1.63;1.63;;;8.30;62.20;;;;;;4939761;29;20205;-86
2021/05/04 06:13:03;;;;;;;1.97;1.97;;;8.50;62.50;;;;;;4957466;29;20517;-87
2021/05/04 06:15:29;;;;;;;2.30;2.20;;;8.30;60.30;;;;;;4956895;29;20656;-87
2021/05/04 06:17:55;;;;;;;5.60;2.37;;;8.70;60.30;;;;;;4939819;29;20441;-87
2021/05/04 06:20:21;;;;;;;1.87;1.87;;;8.80;60.90;;;;;;4940215;29;20495;-86
2021/05/04 06:22:47;;;;;;;2.17;2.00;;;8.50;60.70;;;;;;4956498;29;20422;-88
2021/05/04 06:25:13;;;;;;;1.50;1.50;;;8.90;59.90;;;;;;4958588;29;20422;-87
2021/05/04 06:27:38;;;;;;;1.80;1.70;;;8.90;60.20;;;;;;4940398;29;20187;-87
2021/05/04 06:30:08;;;;;;;1.70;1.70;;;9.40;60.70;;;;;;4941238;29;20441;-87
2021/05/04 06:32:34;;;;;;;2.87;2.47;;;9.30;59.80;;;;;;4942533;29;20265;-86
2021/05/04 06:35:00;;;;;;;2.13;2.07;;;9.50;59.70;;;;;;4940133;29;20466;-87
2021/05/04 06:37:26;;;;;;;1.80;1.80;;;9.60;59.40;;;;;;4957957;29;20827;-87
2021/05/04 06:39:51;;;;;;;2.60;2.40;;;9.70;59.40;;;;;;4959136;29;20246;-87
2021/05/04 06:42:17;;;;;;;1.63;1.63;;;9.90;59.50;;;;;;4940028;29;20457;-88
2021/05/04 06:44:43;;;;;;;2.40;2.10;;;9.80;59.00;;;;;;4937197;29;20189;-87
2021/05/04 06:47:08;;;;;;;1.50;1.50;;;8.80;58.30;;;;;;4957269;28;20187;-88
2021/05/04 06:49:34;;;;;;;1.90;1.87;;;10.00;57.70;;;;;;4958707;29;20202;-89
2021/05/04 06:52:00;;;;;;;1.70;1.60;;;10.00;58.00;;;;;;4960972;29;20303;-87
2021/05/04 06:54:28;;;;;;;1.80;1.80;;;10.10;57.90;;;;;;4959871;29;20418;-90
2021/05/04 06:56:54;;;;;;;1.93;1.83;;;10.00;58.10;;;;;;4955409;29;20305;-88
2021/05/04 06:59:20;;;;;;;2.10;1.97;;;9.90;59.70;;;;;;4956342;29;20445;-87
2021/05/04 07:02:01;;;;;;;0.90;0.90;;;10.30;59.10;;;;;;4973027;28;20171;-91
2021/05/04 07:04:32;;;;;;;1.63;1.63;;;10.00;58.70;;;;;;4958676;29;20195;-88
2021/05/04 07:07:16;;;;;;;1.63;1.53;;;10.00;60.50;;;;;;4974238;28;20563;-88
2021/05/04 07:09:42;;;;;;;2.53;1.20;;;10.10;59.50;;;;;;5031480;23;20501;-88
2021/05/04 07:12:07;;;;;;;1.50;1.50;;;10.20;59.10;;;;;;4955223;28;20449;-86
2021/05/04 07:14:33;;;;;;;1.93;1.83;;;10.20;59.50;;;;;;4972435;28;20420;-88
2021/05/04 07:17:00;;;;;;;1.60;1.60;;;10.10;59.60;;;;;;4955340;28;20429;-89
2021/05/04 07:19:27;;;;;;;2.80;2.50;;;10.30;59.90;;;;;;4955110;28;20188;-88
2021/05/04 07:21:54;;;;;;;1.73;1.73;;;10.20;59.70;;;;;;4955051;28;20955;-86
2021/05/04 07:24:19;;;;;;;1.80;1.70;;;10.10;59.70;;;;;;4972384;28;20409;-88
2021/05/04 07:26:45;;;;;;;1.37;1.37;;;10.20;60.40;;;;;;4972706;28;20417;-88
2021/05/04 07:29:11;;;;;;;2.33;1.73;;;10.20;59.60;;;;;;4972581;28;20418;-86
2021/05/04 07:31:37;;;;;;;1.93;1.90;;;10.30;59.70;;;;;;4973288;28;20180;-88
2021/05/04 07:34:02;;;;;;;1.15;1.15;;;10.30;59.10;;;;;;4956558;28;20186;-87
2021/05/04 07:36:30;;;;;;;1.70;1.63;;;10.40;59.30;;;;;;4972603;28;20228;-87
2021/05/04 07:38:56;;;;;;;2.13;2.03;;;10.20;61.20;;;;;;4972565;28;20643;-86
2021/05/04 07:41:22;;;;;;;2.10;2.00;;;10.10;62.20;;;;;;4955952;28;20441;-87
2021/05/04 07:43:47;;;;;;;1.73;1.73;;;10.00;63.50;;;;;;4973085;28;20413;-88
2021/05/04 07:46:13;;;;;;;1.60;1.50;;;10.00;65.80;;;;;;4972685;28;20220;-86
2021/05/04 07:48:38;;;;;;;2.27;2.10;;;10.10;62.80;;;;;;4972644;28;20251;-86
2021/05/04 07:51:05;;;;;;;1.70;1.70;;;10.10;62.60;;;;;;4972298;28;20581;-88
2021/05/04 07:53:32;;;;;;;1.60;1.60;;;10.10;63.60;;;;;;4972249;28;20339;-88
2021/05/04 07:55:58;;;;;;;1.83;1.83;;;10.20;63.10;;;;;;4972402;28;20472;-88
2021/05/04 07:58:23;;;;;;;1.60;1.60;;;10.70;64.20;;;;;;4972558;28;20416;-87
2021/05/04 08:00:49;;;;;;;1.70;1.60;;;10.20;63.60;;;;;;4972584;28;20292;-87
2021/05/04 08:03:15;;;;;;;4.27;1.40;;;11.10;66.40;;;;;;4972243;28;20290;-87
2021/05/04 08:05:41;;;;;;;1.20;1.20;;;10.50;63.10;;;;;;4971931;28;20162;-88
2021/05/04 08:08:07;;;;;;;2.33;2.07;;;10.60;62.50;;;;;;4972138;28;20436;-86
2021/05/04 08:10:34;;;;;;;1.70;1.70;;;10.50;62.60;;;;;;4954760;28;20489;-84
2021/05/04 08:13:02;;;;;;;0.97;0.83;;;10.30;62.10;;;;;;4971724;28;20490;-86
2021/05/04 08:15:28;;;;;;;2.03;1.93;;;10.50;62.70;;;;;;4972005;28;20457;-85
2021/05/04 08:18:00;;;;;;;10.20;9.30;;;9.50;65.10;;;;;;4972503;28;20432;-87
2021/05/04 08:20:30;;;;;;;2.30;2.00;;;10.10;67.50;;;;;;4972042;28;20433;-86
2021/05/04 08:22:56;;;;;;;2.10;2.10;;;9.90;66.50;;;;;;4968614;28;20505;-86
2021/05/04 08:25:23;;;;;;;1.37;1.33;;;10.00;64.90;;;;;;4967374;28;20513;-85
2021/05/04 08:27:49;;;;;;;1.67;1.63;;;10.40;66.40;;;;;;4953378;29;20177;-87
2021/05/04 08:30:15;;;;;;;2.30;2.30;;;10.10;65.30;;;;;;4946965;28;20513;-86
2021/05/04 08:32:40;;;;;;;1.53;1.43;;;10.20;65.50;;;;;;4972568;28;20422;-87
2021/05/04 08:35:06;;;;;;;1.40;1.40;;;11.50;66.60;;;;;;4972407;28;20524;-87
2021/05/04 08:37:32;;;;;;;1.57;1.57;;;10.50;63.90;;;;;;4973366;28;20213;-88
2021/05/04 08:39:57;;;;;;;1.40;1.40;;;10.70;62.80;;;;;;4973451;28;20425;-86
2021/05/04 08:42:23;;;;;;;3.77;1.30;;;10.00;59.10;;;;;;4974235;28;20205;-87
2021/05/04 08:44:52;;;;;;;3.30;1.00;;;10.90;59.10;;;;;;4974084;28;20209;-85
2021/05/04 08:47:19;;;;;;;1.47;1.37;;;11.30;58.70;;;;;;4974156;28;20177;-87
2021/05/04 08:49:46;;;;;;;1.63;1.63;;;11.10;58.10;;;;;;4973701;28;20418;-86
2021/05/04 08:52:12;;;;;;;1.70;1.70;;;11.40;57.50;;;;;;4956494;28;20434;-86
2021/05/04 08:54:38;;;;;;;2.10;2.00;;;11.40;58.10;;;;;;4973878;28;20417;-86
2021/05/04 08:57:04;;;;;;;1.53;1.53;;;10.50;57.60;;;;;;4956371;28;20637;-85
2021/05/04 08:59:30;;;;;;;1.20;1.20;;;11.70;58.30;;;;;;4974317;28;20769;-87
2021/05/04 09:01:56;;;;;;;1.43;1.33;;;11.50;58.70;;;;;;4956384;28;20456;-85
2021/05/04 09:04:38;;;;;;;1.47;1.47;;;11.30;59.20;;;;;;4956610;28;20425;-87
2021/05/04 09:07:31;;;;;;;1.10;1.10;;;11.30;59.40;;;;;;4973382;28;20256;-87
2021/05/04 09:10:53;;;;;;;1.00;1.00;;;11.20;59.60;;;;;;4975309;28;20580;-87
2021/05/04 09:13:13;;;;;;;4.10;1.80;;;11.10;61.00;;;;;;4965251;28;20420;-88
2021/05/04 09:21:39;;;;;;;2.83;2.27;;;10.40;68.40;;;;;;4977388;28;20421;-85
2021/05/04 09:24:25;;;;;;;2.13;1.90;;;10.30;70.10;;;;;;4977377;28;20509;-86
2021/05/04 09:27:09;;;;;;;2.90;2.73;;;10.10;72.10;;;;;;4979086;28;20417;-86
2021/05/04 09:29:39;;;;;;;2.13;2.13;;;10.00;72.50;;;;;;4962311;28;20484;-88
2021/05/04 09:32:16;;;;;;;2.70;2.60;;;9.90;74.70;;;;;;4961033;28;20436;-87
2021/05/04 09:34:49;;;;;;;2.27;2.17;;;9.80;75.30;;;;;;4960343;28;20432;-88
2021/05/04 09:37:36;;;;;;;2.28;2.28;;;9.70;77.40;;;;;;4962156;28;20488;-86
2021/05/04 09:40:22;;;;;;;1.47;1.47;;;9.70;76.70;;;;;;4978904;28;20166;-89
2021/05/04 09:43:01;;;;;;;2.25;2.25;;;9.70;75.10;;;;;;4981556;28;20414;-88
2021/05/04 09:45:27;;;;;;;2.50;2.40;;;9.80;76.80;;;;;;4967480;28;20205;-89
2021/05/04 09:48:25;;;;;;;2.47;1.23;;;10.00;75.00;;;;;;4986121;28;20424;-88
2021/05/04 09:50:51;;;;;;;6.23;2.40;;;10.90;69.70;;;;;;4965667;28;20178;-87
2021/05/04 09:53:22;;;;;;;6.63;2.90;;;11.30;69.10;;;;;;4980298;28;20505;-88
2021/05/04 09:55:59;;;;;;;1.47;1.40;;;11.50;67.60;;;;;;4967259;28;20465;-89
2021/05/04 09:58:39;;;;;;;1.83;1.83;;;12.00;66.30;;;;;;4985934;28;20413;-88
2021/05/04 10:01:12;;;;;;;1.80;1.70;;;12.40;62.20;;;;;;4987986;28;20420;-89
2021/05/04 10:03:39;;;;;;;7.90;1.67;;;12.40;62.70;;;;;;4982355;28;20413;-87
2021/05/04 10:06:06;;;;;;;4.93;2.13;;;12.50;61.40;;;;;;4981600;28;20821;-90
2021/05/04 10:08:33;;;;;;;3.03;2.13;;;12.40;62.60;;;;;;4964295;28;20421;-84
2021/05/04 10:11:01;;;;;;;4.20;1.60;;;12.50;62.00;;;;;;4964407;28;20837;-89
2021/05/04 10:13:31;;;;;;;2.30;2.13;;;12.40;61.20;;;;;;4979740;28;20429;-90
2021/05/04 10:15:58;;;;;;;1.60;1.60;;;12.50;60.50;;;;;;4961042;28;20476;-86
2021/05/04 10:18:25;;;;;;;2.33;2.23;;;14.20;61.90;;;;;;4959968;28;20445;-88
2021/05/04 10:20:53;;;;;;;3.33;2.03;;;12.10;61.40;;;;;;4978318;28;20476;-87
2021/05/04 10:23:19;;;;;;;1.40;1.40;;;12.40;59.80;;;;;;4975844;28;20545;-87
2021/05/04 10:25:45;;;;;;;3.93;2.50;;;12.80;59.20;;;;;;4977511;28;20523;-86
2021/05/04 10:28:12;;;;;;;1.57;1.50;;;12.10;58.90;;;;;;4977572;28;20444;-87
2021/05/04 10:30:38;;;;;;;1.70;1.60;;;13.40;58.10;;;;;;4978212;28;20484;-87
2021/05/04 10:33:12;;;;;;;3.40;2.33;;;12.40;56.90;;;;;;4960870;28;20430;-89
2021/05/04 10:35:48;;;;;;;1.70;1.33;;;13.40;57.30;;;;;;4960309;28;20424;-89
2021/05/04 10:38:16;;;;;;;4.27;2.00;;;13.10;55.70;;;;;;4977913;28;20456;-88
2021/05/04 10:41:05;;;;;;;1.87;1.83;;;13.50;56.90;;;;;;4961291;28;20491;-90
2021/05/04 10:43:30;;;;;;;1.70;1.70;;;13.70;57.60;;;;;;4959490;28;20436;-89
2021/05/04 10:45:58;;;;;;;2.87;2.70;;;14.80;57.60;;;;;;4977887;28;20461;-89
2021/05/04 10:48:48;;;;;;;2.33;2.13;;;13.70;58.20;;;;;;4979588;28;20297;-89
2021/05/04 10:51:19;;;;;;;6.30;3.03;;;13.10;60.40;;;;;;4959861;28;20520;-87
2021/05/04 10:53:55;;;;;;;3.03;2.80;;;13.50;67.30;;;;;;4976307;28;20406;-87
2021/05/04 10:56:41;;;;;;;3.20;2.87;;;11.50;68.30;;;;;;4977161;28;20464;-89
2021/05/04 10:59:27;;;;;;;6.97;2.70;;;12.80;73.40;;;;;;4966271;28;20416;-89
2021/05/04 11:02:07;;;;;;;3.23;2.70;;;11.10;66.70;;;;;;4955009;28;20449;-88
2021/05/04 11:04:41;;;;;;;9.53;2.23;;;11.20;62.60;;;;;;4985321;28;20436;-88
2021/05/04 11:07:07;;;;;;;11.33;4.07;;;11.70;63.70;;;;;;4972224;28;20440;-89
2021/05/04 11:10:00;;;;;;;7.90;2.50;;;11.80;63.00;;;;;;4971353;28;20787;-90
2021/05/04 11:12:41;;;;;;;2.83;1.60;;;11.80;61.30;;;;;;4971260;28;20648;-87
2021/05/04 11:15:24;;;;;;;6.13;2.30;;;12.50;61.90;;;;;;4970130;28;20425;-90
2021/05/04 11:17:50;;;;;;;3.03;1.90;;;13.50;58.70;;;;;;4984316;28;20464;-87
2021/05/04 11:20:37;;;;;;;9.20;3.63;;;16.00;58.10;;;;;;4962964;28;20414;-88
2021/05/04 11:23:04;;;;;;;5.53;2.23;;;13.50;54.00;;;;;;4961348;28;20978;-88
2021/05/04 11:25:34;;;;;;;5.50;3.10;;;12.00;53.60;;;;;;4961511;28;21002;-88
2021/05/04 11:28:00;;;;;;;8.23;2.43;;;13.20;52.80;;;;;;4978516;28;20480;-89
2021/05/04 11:30:46;;;;;;;6.67;3.40;;;14.90;55.10;;;;;;4963395;28;20417;-88
2021/05/04 11:33:26;;;;;;;3.27;1.90;;;14.30;50.60;;;;;;4960509;28;20192;-90
2021/05/04 11:35:52;;;;;;;4.07;2.20;;;14.50;49.30;;;;;;4977159;28;20408;-87
2021/05/04 11:38:19;;;;;;;3.43;2.40;;;14.70;49.50;;;;;;4958665;28;20413;-89
2021/05/04 11:40:45;;;;;;;6.30;2.40;;;15.60;48.30;;;;;;4288254;28;10000652;-87
2021/05/04 11:43:15;;;;;;;6.70;2.50;;;15.40;47.50;;;;;;4956514;28;20174;-90
2021/05/04 11:45:43;;;;;;;7.83;2.40;;;14.20;47.20;;;;;;4956112;28;20672;-89
2021/05/04 11:48:15;;;;;;;2.33;2.20;;;14.10;47.50;;;;;;4973250;28;20413;-89
2021/05/04 11:50:43;;;;;;;11.63;3.77;;;13.90;48.30;;;;;;4957759;28;20888;-88
2021/05/04 11:53:12;;;;;;;6.17;2.17;;;14.00;49.80;;;;;;4974686;28;20453;-86
2021/05/04 11:55:47;;;;;;;3.17;2.00;;;13.30;49.30;;;;;;4975032;28;20409;-86
2021/05/04 11:58:22;;;;;;;4.23;2.37;;;13.20;49.80;;;;;;4972856;28;20413;-88
2021/05/04 12:00:58;;;;;;;4.60;2.47;;;12.90;49.80;;;;;;4955279;28;20420;-88
2021/05/04 12:03:24;;;;;;;6.70;3.47;;;12.90;50.40;;;;;;4972893;28;20875;-90
2021/05/04 12:05:49;;;;;;;5.97;1.93;;;12.90;50.20;;;;;;4970108;28;20567;-88
2021/05/04 12:08:15;;;;;;;2.63;2.43;;;12.80;50.60;;;;;;4954846;28;20236;-87
2021/05/04 12:10:48;;;;;;;2.37;2.27;;;12.80;50.30;;;;;;4944931;28;20237;-88
2021/05/04 12:13:15;;;;;;;4.57;2.60;;;12.80;50.00;;;;;;4954563;28;20165;-88
2021/05/04 12:15:43;;;;;;;8.73;2.70;;;11.20;49.40;;;;;;4952179;28;20433;-88
2021/05/04 12:18:39;;;;;;;3.27;2.43;;;13.70;50.80;;;;;;4963432;28;20422;-89
2021/05/04 12:21:08;;;;;;;1.47;1.30;;;12.50;51.10;;;;;;4960579;28;20433;-88
2021/05/04 12:23:36;;;;;;;4.17;2.50;;;12.10;52.00;;;;;;4973435;28;20409;-90
2021/05/04 12:26:09;;;;;;;5.20;2.30;;;12.00;53.20;;;;;;4956771;28;20483;-87
2021/05/04 12:28:53;;;;;;;4.57;2.57;;;12.30;54.30;;;;;;4956296;28;20422;-89
2021/05/04 12:31:28;;;;;;;4.70;2.47;;;12.70;53.40;;;;;;4955236;28;20503;-89
2021/05/04 12:33:55;;;;;;;4.20;2.30;;;13.20;52.50;;;;;;4971942;28;20479;-89
2021/05/04 12:39:24;;;;;;;3.70;1.90;;;13.60;50.30;;;;;;4973164;28;21207;-87
2021/05/04 12:41:51;;;;;;;2.00;1.80;;;13.60;48.70;;;;;;4972303;28;20436;-88
2021/05/04 12:46:48;;;;;;;6.13;1.90;;;13.40;48.10;;;;;;4976745;28;20461;-87
2021/05/04 12:49:14;;;;;;;1.63;1.47;;;13.30;49.00;;;;;;4959410;28;20787;-88
2021/05/04 12:51:54;;;;;;;1.70;1.60;;;13.10;47.50;;;;;;4959153;28;20825;-87
2021/05/04 12:54:22;;;;;;;1.90;1.50;;;13.20;47.50;;;;;;4959685;28;20889;-88
2021/05/04 12:56:53;;;;;;;9.00;2.20;;;13.20;47.10;;;;;;4976782;28;20413;-88
2021/05/04 12:59:30;;;;;;;1.53;1.40;;;13.20;46.80;;;;;;4975778;28;20823;-88
2021/05/04 13:01:58;;;;;;;4.10;2.20;;;13.10;46.30;;;;;;4958849;28;20429;-86
2021/05/04 13:07:08;;;;;;;10.07;2.33;;;13.30;46.30;;;;;;4978510;28;20481;-87
2021/05/04 13:12:28;;;;;;;3.87;2.13;;;13.30;45.50;;;;;;4976296;28;20480;-88
2021/05/04 13:15:21;;;;;;;2.00;1.60;;;13.50;45.10;;;;;;4960161;28;20472;-87